SXS22AB EDDL-LTAI
Flight info
| Callsign | SXS22AB |
|---|---|
| Flight time | 3h 42m |
| Altitude | 35000 |
| Route | DODEN7Z DODEN Y853 BOMBI DCT ESATI DCT OSBIT DCT TENLO DCT LAMSI DCT SITNI/N0464F370 DCT SASAL DCT BABIT DCT NISVA N131 RODIP DCT BELGI UN131 KOZLU |
| Aircraft | B738/M-SDE2E3FGHIRWXY/LB1 |
Departure
| Time | 2026-05-07 12:14 |
|---|---|
| Airport | Düsseldorf Airport (EDDL) |
Arrival
| Time | 2026-05-07 15:56 |
|---|---|
| Airport | Antalya International Airport (LTAI) |
| Time | Latitude | Longitude | Altitude | Speed | Heading |
|---|---|---|---|---|---|
| 2026-05-07 11:31 | 51.27630 | 6.76370 | 127 ft | 0 kts | 340° |
| 2026-05-07 12:01 | 51.27608 | 6.76381 | 123 ft | 4 kts | 347° |
| 2026-05-07 12:01 | 51.27582 | 6.76387 | 125 ft | 4 kts | 0° |
| 2026-05-07 12:02 | 51.27555 | 6.76382 | 127 ft | 4 kts | 18° |
| 2026-05-07 12:02 | 51.27532 | 6.76363 | 123 ft | 4 kts | 40° |
| 2026-05-07 12:02 | 51.27514 | 6.76332 | 123 ft | 4 kts | 59° |
| 2026-05-07 12:02 | 51.27506 | 6.76307 | 123 ft | 4 kts | 68° |
| 2026-05-07 12:03 | 51.27498 | 6.76266 | 123 ft | 4 kts | 79° |
| 2026-05-07 12:03 | 51.27493 | 6.76209 | 126 ft | 4 kts | 87° |
| 2026-05-07 12:03 | 51.27493 | 6.76180 | 126 ft | 4 kts | 90° |
| 2026-05-07 12:03 | 51.27493 | 6.76123 | 128 ft | 4 kts | 90° |
| 2026-05-07 12:04 | 51.27493 | 6.76095 | 126 ft | 4 kts | 78° |
| 2026-05-07 12:04 | 51.27491 | 6.76083 | 129 ft | 1 kts | 69° |
| 2026-05-07 12:07 | 51.27505 | 6.76113 | 127 ft | 4 kts | 34° |
| 2026-05-07 12:07 | 51.27534 | 6.76114 | 125 ft | 4 kts | 338° |
| 2026-05-07 12:07 | 51.27560 | 6.76093 | 129 ft | 4 kts | 332° |
| 2026-05-07 12:08 | 51.27586 | 6.76071 | 129 ft | 4 kts | 331° |
| 2026-05-07 12:08 | 51.27612 | 6.76053 | 126 ft | 4 kts | 339° |
| 2026-05-07 12:08 | 51.27639 | 6.76041 | 126 ft | 4 kts | 351° |
| 2026-05-07 12:08 | 51.27668 | 6.76040 | 127 ft | 5 kts | 0° |
| 2026-05-07 12:09 | 51.27707 | 6.76041 | 125 ft | 7 kts | 1° |
| 2026-05-07 12:09 | 51.27752 | 6.76042 | 128 ft | 7 kts | 1° |
| 2026-05-07 12:09 | 51.27798 | 6.76045 | 128 ft | 7 kts | 2° |
| 2026-05-07 12:09 | 51.27835 | 6.76017 | 128 ft | 7 kts | 304° |
| 2026-05-07 12:10 | 51.27844 | 6.75946 | 128 ft | 7 kts | 270° |
| 2026-05-07 12:10 | 51.27843 | 6.75862 | 128 ft | 9 kts | 279° |
| 2026-05-07 12:10 | 51.27859 | 6.75763 | 125 ft | 9 kts | 280° |
| 2026-05-07 12:10 | 51.27861 | 6.75659 | 127 ft | 9 kts | 276° |
| 2026-05-07 12:11 | 51.27911 | 6.75593 | 125 ft | 10 kts | 333° |
| 2026-05-07 12:11 | 51.27967 | 6.75546 | 127 ft | 9 kts | 332° |
| 2026-05-07 12:11 | 51.27996 | 6.75522 | 123 ft | 3 kts | 334° |
| 2026-05-07 12:11 | 51.28029 | 6.75502 | 125 ft | 8 kts | 344° |
| 2026-05-07 12:12 | 51.28094 | 6.75511 | 123 ft | 11 kts | 20° |
| 2026-05-07 12:12 | 51.28132 | 6.75560 | 124 ft | 0 kts | 51° |
| 2026-05-07 12:13 | 51.28201 | 6.75700 | 125 ft | 51 kts | 52° |
| 2026-05-07 12:13 | 51.28595 | 6.76525 | 128 ft | 133 kts | 52° |
| 2026-05-07 12:13 | 51.29273 | 6.77971 | 301 ft | 185 kts | 52° |
| 2026-05-07 12:14 | 51.30100 | 6.79656 | 1168 ft | 200 kts | 47° |
| 2026-05-07 12:14 | 51.30984 | 6.81386 | 1988 ft | 202 kts | 50° |
| 2026-05-07 12:14 | 51.31851 | 6.83239 | 2581 ft | 217 kts | 51° |
| 2026-05-07 12:14 | 51.32781 | 6.85251 | 3070 ft | 229 kts | 52° |
| 2026-05-07 12:15 | 51.33735 | 6.87369 | 3561 ft | 245 kts | 53° |
| 2026-05-07 12:15 | 51.34741 | 6.89694 | 4139 ft | 258 kts | 58° |
| 2026-05-07 12:15 | 51.35242 | 6.92463 | 5058 ft | 263 kts | 84° |
| 2026-05-07 12:15 | 51.35132 | 6.95404 | 5962 ft | 268 kts | 96° |
| 2026-05-07 12:16 | 51.34823 | 6.98368 | 6787 ft | 272 kts | 98° |
| 2026-05-07 12:16 | 51.34485 | 7.01324 | 7563 ft | 276 kts | 99° |
| 2026-05-07 12:16 | 51.34148 | 7.04368 | 8356 ft | 280 kts | 99° |
| 2026-05-07 12:16 | 51.33822 | 7.07461 | 9160 ft | 284 kts | 99° |
| 2026-05-07 12:17 | 51.33500 | 7.10604 | 9965 ft | 288 kts | 99° |
| 2026-05-07 12:17 | 51.33172 | 7.13814 | 10524 ft | 301 kts | 99° |
| 2026-05-07 12:17 | 51.32666 | 7.17191 | 10709 ft | 326 kts | 114° |
| 2026-05-07 12:17 | 51.31320 | 7.20225 | 10913 ft | 347 kts | 134° |
| 2026-05-07 12:18 | 51.29557 | 7.23038 | 11093 ft | 368 kts | 136° |
| 2026-05-07 12:18 | 51.27677 | 7.25926 | 11538 ft | 380 kts | 136° |
| 2026-05-07 12:18 | 51.25756 | 7.28875 | 12150 ft | 386 kts | 136° |
| 2026-05-07 12:18 | 51.23824 | 7.31871 | 12869 ft | 389 kts | 136° |
| 2026-05-07 12:19 | 51.21874 | 7.34922 | 13474 ft | 395 kts | 136° |
| 2026-05-07 12:19 | 51.19908 | 7.38014 | 14114 ft | 399 kts | 136° |
| 2026-05-07 12:19 | 51.17922 | 7.41139 | 14739 ft | 402 kts | 136° |
| 2026-05-07 12:19 | 51.15927 | 7.44274 | 15422 ft | 404 kts | 136° |
| 2026-05-07 12:20 | 51.13902 | 7.47418 | 15981 ft | 409 kts | 136° |
| 2026-05-07 12:20 | 51.11843 | 7.50566 | 16558 ft | 412 kts | 137° |
| 2026-05-07 12:20 | 51.09790 | 7.53690 | 17196 ft | 414 kts | 137° |
| 2026-05-07 12:20 | 51.07698 | 7.56871 | 17750 ft | 418 kts | 137° |
| 2026-05-07 12:21 | 51.05594 | 7.60070 | 18378 ft | 420 kts | 137° |
| 2026-05-07 12:21 | 51.03477 | 7.63293 | 18916 ft | 422 kts | 137° |
| 2026-05-07 12:21 | 51.01351 | 7.66529 | 19391 ft | 425 kts | 137° |
| 2026-05-07 12:21 | 50.99203 | 7.69792 | 19880 ft | 428 kts | 137° |
| 2026-05-07 12:22 | 50.97041 | 7.73062 | 20388 ft | 430 kts | 138° |
| 2026-05-07 12:22 | 50.94669 | 7.75970 | 20870 ft | 432 kts | 148° |
| 2026-05-07 12:22 | 50.92109 | 7.78483 | 21374 ft | 434 kts | 149° |
| 2026-05-07 12:22 | 50.89524 | 7.80910 | 21807 ft | 437 kts | 150° |
| 2026-05-07 12:23 | 50.86862 | 7.83408 | 22223 ft | 441 kts | 149° |
| 2026-05-07 12:23 | 50.84259 | 7.85883 | 22663 ft | 443 kts | 149° |
| 2026-05-07 12:23 | 50.81613 | 7.88435 | 23108 ft | 446 kts | 149° |
| 2026-05-07 12:23 | 50.78969 | 7.91010 | 23542 ft | 448 kts | 149° |
| 2026-05-07 12:24 | 50.76304 | 7.93614 | 23879 ft | 451 kts | 148° |
| 2026-05-07 12:24 | 50.73629 | 7.96231 | 24251 ft | 453 kts | 149° |
| 2026-05-07 12:24 | 50.70949 | 7.98850 | 24621 ft | 454 kts | 148° |
| 2026-05-07 12:24 | 50.68251 | 8.01482 | 24928 ft | 457 kts | 149° |
| 2026-05-07 12:25 | 50.65537 | 8.04124 | 25228 ft | 460 kts | 149° |
| 2026-05-07 12:25 | 50.62808 | 8.06771 | 25574 ft | 461 kts | 149° |
| 2026-05-07 12:25 | 50.60207 | 8.09302 | 25898 ft | 463 kts | 147° |
| 2026-05-07 12:25 | 50.57582 | 8.12260 | 26200 ft | 466 kts | 142° |
| 2026-05-07 12:26 | 50.55077 | 8.15510 | 26508 ft | 468 kts | 140° |
| 2026-05-07 12:26 | 50.52612 | 8.18883 | 26791 ft | 470 kts | 139° |
| 2026-05-07 12:26 | 50.50148 | 8.22277 | 27083 ft | 472 kts | 139° |
| 2026-05-07 12:26 | 50.47654 | 8.25668 | 27393 ft | 473 kts | 140° |
| 2026-05-07 12:27 | 50.45174 | 8.28982 | 27755 ft | 473 kts | 140° |
| 2026-05-07 12:27 | 50.42656 | 8.32300 | 28270 ft | 470 kts | 140° |
| 2026-05-07 12:27 | 50.40163 | 8.35557 | 28737 ft | 468 kts | 141° |
| 2026-05-07 12:27 | 50.37656 | 8.38815 | 29154 ft | 467 kts | 141° |
| 2026-05-07 12:28 | 50.35173 | 8.42036 | 29550 ft | 466 kts | 141° |
| 2026-05-07 12:28 | 50.32678 | 8.45269 | 29970 ft | 465 kts | 141° |
| 2026-05-07 12:28 | 50.30187 | 8.48494 | 30323 ft | 465 kts | 141° |
| 2026-05-07 12:28 | 50.27694 | 8.51719 | 30609 ft | 465 kts | 141° |
| 2026-05-07 12:29 | 50.25197 | 8.54946 | 30869 ft | 466 kts | 141° |
| 2026-05-07 12:29 | 50.22697 | 8.58174 | 31159 ft | 466 kts | 141° |
| 2026-05-07 12:29 | 50.20203 | 8.61390 | 31485 ft | 465 kts | 141° |
| 2026-05-07 12:29 | 50.17703 | 8.64608 | 31781 ft | 465 kts | 141° |
| 2026-05-07 12:30 | 50.15210 | 8.67814 | 32066 ft | 465 kts | 141° |
| 2026-05-07 12:30 | 50.12707 | 8.71028 | 32369 ft | 465 kts | 141° |
| 2026-05-07 12:30 | 50.10243 | 8.74187 | 32650 ft | 465 kts | 141° |
| 2026-05-07 12:30 | 50.07956 | 8.77740 | 32864 ft | 466 kts | 125° |
| 2026-05-07 12:31 | 50.06444 | 8.82187 | 33123 ft | 466 kts | 109° |
| 2026-05-07 12:31 | 50.05726 | 8.87101 | 33401 ft | 465 kts | 94° |
| 2026-05-07 12:31 | 50.05730 | 8.92136 | 33669 ft | 465 kts | 88° |
| 2026-05-07 12:31 | 50.05869 | 8.97180 | 33913 ft | 466 kts | 87° |
| 2026-05-07 12:32 | 50.06011 | 9.02161 | 34119 ft | 467 kts | 87° |
| 2026-05-07 12:32 | 50.06127 | 9.07211 | 34328 ft | 466 kts | 88° |
| 2026-05-07 12:32 | 50.06213 | 9.12265 | 34528 ft | 467 kts | 89° |
| 2026-05-07 12:32 | 50.06283 | 9.17307 | 34721 ft | 467 kts | 89° |
| 2026-05-07 12:33 | 50.06416 | 9.27445 | 35018 ft | 470 kts | 89° |
| 2026-05-07 12:33 | 50.06550 | 9.37644 | 35017 ft | 470 kts | 89° |
| 2026-05-07 12:34 | 50.06676 | 9.47794 | 35011 ft | 467 kts | 89° |
| 2026-05-07 12:34 | 50.06792 | 9.57828 | 35016 ft | 465 kts | 89° |
| 2026-05-07 12:35 | 50.06900 | 9.67895 | 35019 ft | 464 kts | 89° |
| 2026-05-07 12:35 | 50.06281 | 9.77851 | 35013 ft | 463 kts | 107° |
| 2026-05-07 12:36 | 50.03560 | 9.86855 | 35027 ft | 461 kts | 124° |
| 2026-05-07 12:36 | 49.99993 | 9.95099 | 35014 ft | 463 kts | 125° |
| 2026-05-07 12:37 | 49.96375 | 10.03417 | 35028 ft | 465 kts | 125° |
| 2026-05-07 12:37 | 49.92769 | 10.11818 | 35011 ft | 468 kts | 124° |
| 2026-05-07 12:38 | 49.89166 | 10.20253 | 35021 ft | 469 kts | 124° |
| 2026-05-07 12:38 | 49.85547 | 10.28707 | 35006 ft | 471 kts | 124° |
| 2026-05-07 12:39 | 49.81915 | 10.37160 | 35005 ft | 471 kts | 125° |
| 2026-05-07 12:39 | 49.78276 | 10.45598 | 35021 ft | 471 kts | 125° |
| 2026-05-07 12:40 | 49.74631 | 10.54024 | 35010 ft | 471 kts | 125° |
| 2026-05-07 12:40 | 49.71009 | 10.62370 | 35014 ft | 470 kts | 125° |
| 2026-05-07 12:41 | 49.67355 | 10.70765 | 35016 ft | 470 kts | 125° |
| 2026-05-07 12:41 | 49.63705 | 10.79121 | 35013 ft | 469 kts | 125° |
| 2026-05-07 12:42 | 49.60057 | 10.87452 | 35020 ft | 468 kts | 126° |
| 2026-05-07 12:42 | 49.56406 | 10.95763 | 35017 ft | 467 kts | 126° |
| 2026-05-07 12:43 | 49.52763 | 11.04053 | 35028 ft | 467 kts | 124° |
| 2026-05-07 12:43 | 49.49657 | 11.12847 | 35027 ft | 468 kts | 118° |
| 2026-05-07 12:44 | 49.46796 | 11.21803 | 35020 ft | 468 kts | 117° |
| 2026-05-07 12:44 | 49.43902 | 11.30786 | 35020 ft | 468 kts | 118° |
| 2026-05-07 12:45 | 49.40958 | 11.39744 | 35024 ft | 470 kts | 118° |
| 2026-05-07 12:45 | 49.37980 | 11.48708 | 35012 ft | 472 kts | 119° |
| 2026-05-07 12:46 | 49.34986 | 11.57678 | 35009 ft | 472 kts | 119° |
| 2026-05-07 12:46 | 49.32015 | 11.66558 | 35016 ft | 471 kts | 119° |
| 2026-05-07 12:47 | 49.29015 | 11.75491 | 35016 ft | 471 kts | 119° |
| 2026-05-07 12:47 | 49.26011 | 11.84407 | 35019 ft | 470 kts | 119° |
| 2026-05-07 12:48 | 49.23002 | 11.93308 | 35016 ft | 470 kts | 120° |
| 2026-05-07 12:48 | 49.19989 | 12.02189 | 35018 ft | 470 kts | 120° |
| 2026-05-07 12:49 | 49.17480 | 12.09562 | 35013 ft | 470 kts | 120° |
| 2026-05-07 12:49 | 49.13967 | 12.19850 | 35008 ft | 470 kts | 120° |
| 2026-05-07 12:50 | 49.10934 | 12.28698 | 35012 ft | 470 kts | 120° |
| 2026-05-07 12:50 | 49.08408 | 12.36044 | 35006 ft | 470 kts | 120° |
| 2026-05-07 12:51 | 49.05361 | 12.44876 | 35010 ft | 471 kts | 120° |
| 2026-05-07 12:51 | 49.02306 | 12.53700 | 35004 ft | 471 kts | 121° |
| 2026-05-07 12:52 | 48.99240 | 12.62527 | 35008 ft | 471 kts | 121° |
| 2026-05-07 12:52 | 48.96166 | 12.71348 | 35002 ft | 472 kts | 121° |
| 2026-05-07 12:53 | 48.93078 | 12.80178 | 35004 ft | 473 kts | 121° |
| 2026-05-07 12:53 | 48.89979 | 12.89009 | 35005 ft | 473 kts | 121° |
| 2026-05-07 12:54 | 48.86889 | 12.97786 | 34998 ft | 473 kts | 121° |
| 2026-05-07 12:54 | 48.83772 | 13.06608 | 34997 ft | 473 kts | 122° |
| 2026-05-07 12:55 | 48.80657 | 13.15396 | 34996 ft | 473 kts | 122° |
| 2026-05-07 12:55 | 48.77534 | 13.24178 | 34995 ft | 472 kts | 122° |
| 2026-05-07 12:56 | 48.74407 | 13.32939 | 34993 ft | 472 kts | 122° |
| 2026-05-07 12:56 | 48.71277 | 13.41681 | 34991 ft | 471 kts | 122° |
| 2026-05-07 12:57 | 48.68167 | 13.50342 | 34995 ft | 471 kts | 122° |
| 2026-05-07 12:57 | 48.65008 | 13.59020 | 34987 ft | 469 kts | 126° |
| 2026-05-07 12:58 | 48.61345 | 13.67108 | 34988 ft | 465 kts | 130° |
| 2026-05-07 12:58 | 48.57533 | 13.75001 | 34985 ft | 464 kts | 130° |
| 2026-05-07 12:59 | 48.53746 | 13.82903 | 34984 ft | 464 kts | 130° |
| 2026-05-07 12:59 | 48.49988 | 13.90828 | 34983 ft | 464 kts | 130° |
| 2026-05-07 13:00 | 48.46243 | 13.98739 | 34983 ft | 463 kts | 130° |
| 2026-05-07 13:00 | 48.42526 | 14.06567 | 34986 ft | 462 kts | 130° |
| 2026-05-07 13:01 | 48.38779 | 14.14433 | 34992 ft | 462 kts | 130° |
| 2026-05-07 13:01 | 48.35027 | 14.22284 | 34991 ft | 462 kts | 131° |
| 2026-05-07 13:02 | 48.31272 | 14.30117 | 35002 ft | 461 kts | 131° |
| 2026-05-07 13:02 | 48.27516 | 14.37930 | 34985 ft | 461 kts | 131° |
| 2026-05-07 13:03 | 48.23757 | 14.45727 | 34989 ft | 461 kts | 131° |
| 2026-05-07 13:03 | 48.19992 | 14.53516 | 34976 ft | 461 kts | 131° |
| 2026-05-07 13:04 | 48.16245 | 14.61244 | 34967 ft | 461 kts | 131° |
| 2026-05-07 13:04 | 48.12468 | 14.69014 | 34971 ft | 461 kts | 131° |
| 2026-05-07 13:05 | 48.08688 | 14.76770 | 34974 ft | 462 kts | 132° |
| 2026-05-07 13:05 | 48.04898 | 14.84533 | 34967 ft | 462 kts | 131° |
| 2026-05-07 13:06 | 48.01238 | 14.92432 | 34973 ft | 462 kts | 130° |
| 2026-05-07 13:06 | 47.97659 | 15.00355 | 34977 ft | 462 kts | 130° |
| 2026-05-07 13:07 | 47.94046 | 15.08297 | 34964 ft | 462 kts | 130° |
| 2026-05-07 13:07 | 47.90422 | 15.16192 | 34963 ft | 461 kts | 130° |
| 2026-05-07 13:08 | 47.86793 | 15.24058 | 34965 ft | 460 kts | 131° |
| 2026-05-07 13:08 | 47.83164 | 15.31897 | 34964 ft | 459 kts | 131° |
| 2026-05-07 13:09 | 47.79556 | 15.39670 | 34967 ft | 458 kts | 131° |
| 2026-05-07 13:09 | 47.75935 | 15.47452 | 34966 ft | 456 kts | 131° |
| 2026-05-07 13:10 | 47.72322 | 15.55194 | 34972 ft | 454 kts | 131° |
| 2026-05-07 13:10 | 47.68726 | 15.62884 | 34978 ft | 451 kts | 131° |
| 2026-05-07 13:11 | 47.65156 | 15.70483 | 34962 ft | 452 kts | 131° |
| 2026-05-07 13:11 | 47.61553 | 15.78133 | 34958 ft | 453 kts | 131° |
| 2026-05-07 13:12 | 47.57943 | 15.85781 | 34959 ft | 453 kts | 131° |
| 2026-05-07 13:12 | 47.54311 | 15.93455 | 34942 ft | 454 kts | 131° |
| 2026-05-07 13:13 | 47.50690 | 16.01089 | 34967 ft | 453 kts | 131° |
| 2026-05-07 13:13 | 47.47052 | 16.08731 | 34964 ft | 454 kts | 132° |
| 2026-05-07 13:14 | 47.43401 | 16.16381 | 34955 ft | 456 kts | 132° |
| 2026-05-07 13:14 | 47.39748 | 16.24017 | 34964 ft | 458 kts | 132° |
| 2026-05-07 13:15 | 47.36065 | 16.31692 | 34958 ft | 459 kts | 132° |
| 2026-05-07 13:15 | 47.32370 | 16.39375 | 34959 ft | 459 kts | 132° |
| 2026-05-07 13:16 | 47.28669 | 16.47049 | 34956 ft | 458 kts | 132° |
| 2026-05-07 13:16 | 47.24880 | 16.54482 | 34960 ft | 455 kts | 135° |
| 2026-05-07 13:17 | 47.20959 | 16.61783 | 34960 ft | 453 kts | 135° |
| 2026-05-07 13:17 | 47.17054 | 16.69050 | 34961 ft | 452 kts | 135° |
| 2026-05-07 13:18 | 47.13168 | 16.76324 | 34975 ft | 452 kts | 135° |
| 2026-05-07 13:18 | 47.09297 | 16.83582 | 34975 ft | 451 kts | 135° |
| 2026-05-07 13:19 | 47.05429 | 16.90820 | 34979 ft | 451 kts | 135° |
| 2026-05-07 13:19 | 47.01554 | 16.98050 | 34984 ft | 451 kts | 135° |
| 2026-05-07 13:20 | 46.97693 | 17.05231 | 34984 ft | 451 kts | 135° |
| 2026-05-07 13:20 | 46.93801 | 17.12453 | 34992 ft | 452 kts | 135° |
| 2026-05-07 13:21 | 46.89894 | 17.19683 | 34993 ft | 453 kts | 135° |
| 2026-05-07 13:21 | 46.86005 | 17.26862 | 34988 ft | 454 kts | 135° |
| 2026-05-07 13:22 | 46.82077 | 17.34097 | 34993 ft | 455 kts | 135° |
| 2026-05-07 13:22 | 46.78142 | 17.41323 | 34985 ft | 455 kts | 135° |
| 2026-05-07 13:23 | 46.74192 | 17.48558 | 34991 ft | 456 kts | 135° |
| 2026-05-07 13:23 | 46.70234 | 17.55791 | 34996 ft | 456 kts | 135° |
| 2026-05-07 13:24 | 46.66280 | 17.62995 | 34997 ft | 456 kts | 135° |
| 2026-05-07 13:24 | 46.62310 | 17.70210 | 34995 ft | 456 kts | 135° |
| 2026-05-07 13:25 | 46.58341 | 17.77404 | 35006 ft | 456 kts | 135° |
| 2026-05-07 13:25 | 46.54363 | 17.84597 | 35001 ft | 456 kts | 135° |
| 2026-05-07 13:26 | 46.50410 | 17.91724 | 35002 ft | 456 kts | 135° |
| 2026-05-07 13:26 | 46.46427 | 17.98887 | 35001 ft | 456 kts | 135° |
| 2026-05-07 13:27 | 46.42434 | 18.06051 | 35002 ft | 456 kts | 135° |
| 2026-05-07 13:27 | 46.38442 | 18.13194 | 35003 ft | 456 kts | 135° |
| 2026-05-07 13:28 | 46.34438 | 18.20340 | 35006 ft | 457 kts | 135° |
| 2026-05-07 13:28 | 46.30428 | 18.27478 | 35008 ft | 457 kts | 135° |
| 2026-05-07 13:29 | 46.26433 | 18.34570 | 35004 ft | 458 kts | 135° |
| 2026-05-07 13:29 | 46.22405 | 18.41706 | 35006 ft | 458 kts | 135° |
| 2026-05-07 13:30 | 46.18378 | 18.48820 | 35011 ft | 458 kts | 135° |
| 2026-05-07 13:30 | 46.14341 | 18.55932 | 35002 ft | 458 kts | 135° |
| 2026-05-07 13:31 | 46.10300 | 18.63036 | 35013 ft | 458 kts | 135° |
| 2026-05-07 13:31 | 46.06258 | 18.70122 | 35008 ft | 458 kts | 135° |
| 2026-05-07 13:32 | 46.02203 | 18.77213 | 35001 ft | 459 kts | 135° |
| 2026-05-07 13:32 | 45.98139 | 18.84305 | 34997 ft | 459 kts | 135° |
| 2026-05-07 13:33 | 45.94068 | 18.91389 | 34998 ft | 459 kts | 135° |
| 2026-05-07 13:33 | 45.89763 | 18.98025 | 35001 ft | 455 kts | 141° |
| 2026-05-07 13:34 | 45.82907 | 19.07445 | 34994 ft | 455 kts | 141° |
| 2026-05-07 13:35 | 45.78338 | 19.13741 | 34996 ft | 456 kts | 141° |
| 2026-05-07 13:35 | 45.73785 | 19.20067 | 34995 ft | 456 kts | 141° |
| 2026-05-07 13:36 | 45.69236 | 19.26399 | 35000 ft | 456 kts | 141° |
| 2026-05-07 13:36 | 45.65451 | 19.31660 | 35007 ft | 456 kts | 141° |
| 2026-05-07 13:37 | 45.60897 | 19.37972 | 34986 ft | 456 kts | 141° |
| 2026-05-07 13:37 | 45.56340 | 19.44273 | 34995 ft | 455 kts | 141° |
| 2026-05-07 13:38 | 45.51788 | 19.50549 | 34997 ft | 455 kts | 141° |
| 2026-05-07 13:38 | 45.47236 | 19.56812 | 35004 ft | 454 kts | 141° |
| 2026-05-07 13:39 | 45.42690 | 19.63051 | 34995 ft | 454 kts | 141° |
| 2026-05-07 13:39 | 45.38165 | 19.69247 | 34999 ft | 453 kts | 141° |
| 2026-05-07 13:40 | 45.33619 | 19.75458 | 35003 ft | 452 kts | 141° |
| 2026-05-07 13:40 | 45.29072 | 19.81654 | 35005 ft | 452 kts | 141° |
| 2026-05-07 13:41 | 45.24562 | 19.87786 | 35003 ft | 451 kts | 141° |
| 2026-05-07 13:41 | 45.20027 | 19.93938 | 35005 ft | 451 kts | 141° |
| 2026-05-07 13:42 | 45.15491 | 20.00078 | 35009 ft | 451 kts | 141° |
| 2026-05-07 13:42 | 45.10952 | 20.06206 | 35014 ft | 451 kts | 141° |
| 2026-05-07 13:43 | 45.06413 | 20.12321 | 35019 ft | 450 kts | 141° |
| 2026-05-07 13:43 | 45.01870 | 20.18427 | 35021 ft | 450 kts | 141° |
| 2026-05-07 13:44 | 44.97317 | 20.24532 | 35019 ft | 450 kts | 141° |
| 2026-05-07 13:44 | 44.92797 | 20.30580 | 35014 ft | 449 kts | 141° |
| 2026-05-07 13:45 | 44.88253 | 20.36645 | 35017 ft | 449 kts | 141° |
| 2026-05-07 13:45 | 44.83712 | 20.42693 | 35020 ft | 449 kts | 141° |
| 2026-05-07 13:46 | 44.79173 | 20.48725 | 35029 ft | 449 kts | 141° |
| 2026-05-07 13:46 | 44.74626 | 20.54752 | 35020 ft | 449 kts | 141° |
| 2026-05-07 13:47 | 44.70078 | 20.60768 | 35015 ft | 449 kts | 142° |
| 2026-05-07 13:47 | 44.65523 | 20.66779 | 35021 ft | 449 kts | 142° |
| 2026-05-07 13:48 | 44.60962 | 20.72785 | 35021 ft | 450 kts | 142° |
| 2026-05-07 13:48 | 44.56420 | 20.78752 | 35021 ft | 450 kts | 142° |
| 2026-05-07 13:49 | 44.51834 | 20.84763 | 35020 ft | 451 kts | 142° |
| 2026-05-07 13:49 | 44.47245 | 20.90765 | 35018 ft | 452 kts | 142° |
| 2026-05-07 13:50 | 44.42644 | 20.96769 | 35028 ft | 452 kts | 142° |
| 2026-05-07 13:50 | 44.38042 | 21.02761 | 35026 ft | 452 kts | 142° |
| 2026-05-07 13:51 | 44.33426 | 21.08757 | 35048 ft | 453 kts | 142° |
| 2026-05-07 13:51 | 44.28802 | 21.14750 | 35033 ft | 453 kts | 142° |
| 2026-05-07 13:52 | 44.24181 | 21.20727 | 35034 ft | 453 kts | 142° |
| 2026-05-07 13:52 | 44.19587 | 21.26656 | 35036 ft | 452 kts | 142° |
| 2026-05-07 13:53 | 44.14965 | 21.32607 | 35044 ft | 452 kts | 142° |
| 2026-05-07 13:53 | 44.10344 | 21.38542 | 35044 ft | 451 kts | 142° |
| 2026-05-07 13:54 | 44.05731 | 21.44454 | 35051 ft | 451 kts | 142° |
| 2026-05-07 13:54 | 44.01107 | 21.50368 | 35057 ft | 451 kts | 142° |
| 2026-05-07 13:55 | 43.96515 | 21.56228 | 35059 ft | 451 kts | 142° |
| 2026-05-07 13:55 | 43.91894 | 21.62112 | 35065 ft | 451 kts | 142° |
| 2026-05-07 13:56 | 43.87269 | 21.67987 | 35071 ft | 451 kts | 142° |
| 2026-05-07 13:56 | 43.82639 | 21.73857 | 35068 ft | 451 kts | 142° |
| 2026-05-07 13:57 | 43.78001 | 21.79722 | 35060 ft | 452 kts | 142° |
| 2026-05-07 13:57 | 43.73353 | 21.85588 | 35076 ft | 452 kts | 142° |
| 2026-05-07 13:58 | 43.68700 | 21.91448 | 35071 ft | 453 kts | 142° |
| 2026-05-07 13:58 | 43.64065 | 21.97272 | 35079 ft | 454 kts | 141° |
| 2026-05-07 13:59 | 43.59390 | 22.03133 | 35074 ft | 454 kts | 141° |
| 2026-05-07 13:59 | 43.54699 | 22.09003 | 35081 ft | 455 kts | 142° |
| 2026-05-07 14:00 | 43.50003 | 22.14865 | 35079 ft | 456 kts | 142° |
| 2026-05-07 14:00 | 43.45298 | 22.20726 | 35078 ft | 457 kts | 142° |
| 2026-05-07 14:01 | 43.40580 | 22.26590 | 35087 ft | 457 kts | 142° |
| 2026-05-07 14:01 | 43.35850 | 22.32456 | 35089 ft | 458 kts | 142° |
| 2026-05-07 14:02 | 43.31110 | 22.38321 | 35091 ft | 458 kts | 142° |
| 2026-05-07 14:02 | 43.26397 | 22.44141 | 35100 ft | 459 kts | 142° |
| 2026-05-07 14:03 | 43.21647 | 22.49994 | 35099 ft | 460 kts | 142° |
| 2026-05-07 14:03 | 43.16876 | 22.55859 | 35106 ft | 460 kts | 142° |
| 2026-05-07 14:04 | 43.12098 | 22.61720 | 35098 ft | 462 kts | 142° |
| 2026-05-07 14:04 | 43.07301 | 22.67593 | 35090 ft | 463 kts | 142° |
| 2026-05-07 14:05 | 43.02499 | 22.73460 | 35097 ft | 462 kts | 142° |
| 2026-05-07 14:05 | 42.97728 | 22.79276 | 35097 ft | 462 kts | 142° |
| 2026-05-07 14:06 | 42.92987 | 22.85224 | 35091 ft | 463 kts | 141° |
| 2026-05-07 14:06 | 42.88299 | 22.91269 | 35085 ft | 463 kts | 140° |
| 2026-05-07 14:07 | 42.83612 | 22.97293 | 35086 ft | 462 kts | 141° |
| 2026-05-07 14:07 | 42.78918 | 23.03284 | 35091 ft | 462 kts | 141° |
| 2026-05-07 14:08 | 42.74245 | 23.09226 | 35097 ft | 461 kts | 141° |
| 2026-05-07 14:08 | 42.69557 | 23.15170 | 35096 ft | 460 kts | 141° |
| 2026-05-07 14:09 | 42.64878 | 23.21092 | 35105 ft | 460 kts | 141° |
| 2026-05-07 14:09 | 42.60191 | 23.27012 | 35100 ft | 460 kts | 141° |
| 2026-05-07 14:10 | 42.55495 | 23.32931 | 35093 ft | 459 kts | 141° |
| 2026-05-07 14:10 | 42.50845 | 23.38779 | 35098 ft | 459 kts | 141° |
| 2026-05-07 14:11 | 42.46157 | 23.44662 | 35098 ft | 459 kts | 141° |
| 2026-05-07 14:11 | 42.41456 | 23.50549 | 35112 ft | 460 kts | 141° |
| 2026-05-07 14:12 | 42.36748 | 23.56433 | 35107 ft | 461 kts | 141° |
| 2026-05-07 14:12 | 42.32058 | 23.62284 | 35114 ft | 462 kts | 141° |
| 2026-05-07 14:13 | 42.27308 | 23.68155 | 35115 ft | 462 kts | 142° |
| 2026-05-07 14:13 | 42.22520 | 23.73961 | 35108 ft | 462 kts | 142° |
| 2026-05-07 14:14 | 42.17727 | 23.79761 | 35111 ft | 463 kts | 142° |
| 2026-05-07 14:14 | 42.12938 | 23.85559 | 35106 ft | 463 kts | 141° |
| 2026-05-07 14:15 | 42.08162 | 23.91335 | 35116 ft | 464 kts | 141° |
| 2026-05-07 14:15 | 42.03348 | 23.97145 | 35116 ft | 465 kts | 141° |
| 2026-05-07 14:16 | 41.98523 | 24.02954 | 35112 ft | 465 kts | 141° |
| 2026-05-07 14:16 | 41.93691 | 24.08763 | 35124 ft | 466 kts | 141° |
| 2026-05-07 14:17 | 41.88840 | 24.14587 | 35122 ft | 468 kts | 141° |
| 2026-05-07 14:17 | 41.83979 | 24.20412 | 35124 ft | 469 kts | 141° |
| 2026-05-07 14:18 | 41.79139 | 24.26201 | 35139 ft | 470 kts | 141° |
| 2026-05-07 14:18 | 41.74243 | 24.32042 | 35123 ft | 471 kts | 141° |
| 2026-05-07 14:19 | 41.69353 | 24.37866 | 35121 ft | 470 kts | 141° |
| 2026-05-07 14:19 | 41.64458 | 24.43682 | 35121 ft | 470 kts | 141° |
| 2026-05-07 14:20 | 41.59586 | 24.49460 | 35131 ft | 471 kts | 141° |
| 2026-05-07 14:20 | 41.54682 | 24.55262 | 35134 ft | 472 kts | 141° |
| 2026-05-07 14:21 | 41.49764 | 24.61070 | 35134 ft | 472 kts | 141° |
| 2026-05-07 14:21 | 41.44826 | 24.66891 | 35135 ft | 474 kts | 142° |
| 2026-05-07 14:22 | 41.39924 | 24.72790 | 35125 ft | 476 kts | 139° |
| 2026-05-07 14:22 | 41.35222 | 24.78939 | 35123 ft | 477 kts | 138° |
| 2026-05-07 14:23 | 41.30505 | 24.85192 | 35111 ft | 477 kts | 138° |
| 2026-05-07 14:23 | 41.25784 | 24.91385 | 35119 ft | 477 kts | 138° |
| 2026-05-07 14:24 | 41.21840 | 24.96517 | 35119 ft | 477 kts | 138° |
| 2026-05-07 14:24 | 41.16302 | 25.03693 | 35112 ft | 477 kts | 138° |
| 2026-05-07 14:25 | 41.12349 | 25.08804 | 35118 ft | 477 kts | 138° |
| 2026-05-07 14:25 | 41.07580 | 25.14962 | 35118 ft | 477 kts | 138° |
| 2026-05-07 14:26 | 41.02820 | 25.21095 | 35117 ft | 477 kts | 138° |
| 2026-05-07 14:26 | 40.98060 | 25.27215 | 35122 ft | 477 kts | 138° |
| 2026-05-07 14:27 | 40.93285 | 25.33341 | 35116 ft | 478 kts | 138° |
| 2026-05-07 14:27 | 40.88508 | 25.39458 | 35125 ft | 478 kts | 138° |
| 2026-05-07 14:28 | 40.83722 | 25.45572 | 35123 ft | 479 kts | 138° |
| 2026-05-07 14:28 | 40.78959 | 25.51645 | 35124 ft | 479 kts | 138° |
| 2026-05-07 14:29 | 40.74157 | 25.57753 | 35124 ft | 479 kts | 138° |
| 2026-05-07 14:29 | 40.69346 | 25.63861 | 35118 ft | 480 kts | 138° |
| 2026-05-07 14:30 | 40.64528 | 25.69966 | 35117 ft | 481 kts | 138° |
| 2026-05-07 14:30 | 40.59695 | 25.76077 | 35123 ft | 481 kts | 138° |
| 2026-05-07 14:31 | 40.54857 | 25.82183 | 35118 ft | 482 kts | 138° |
| 2026-05-07 14:31 | 40.50038 | 25.88265 | 35126 ft | 482 kts | 136° |
| 2026-05-07 14:32 | 40.45502 | 25.94813 | 35116 ft | 484 kts | 132° |
| 2026-05-07 14:32 | 40.41110 | 26.01509 | 35117 ft | 484 kts | 132° |
| 2026-05-07 14:33 | 40.36716 | 26.08144 | 35123 ft | 485 kts | 133° |
| 2026-05-07 14:33 | 40.32264 | 26.14782 | 35120 ft | 485 kts | 133° |
| 2026-05-07 14:34 | 40.27798 | 26.21409 | 35122 ft | 485 kts | 133° |
| 2026-05-07 14:34 | 40.23341 | 26.28012 | 35134 ft | 485 kts | 133° |
| 2026-05-07 14:35 | 40.18888 | 26.34599 | 35127 ft | 486 kts | 133° |
| 2026-05-07 14:35 | 40.14404 | 26.41218 | 35131 ft | 486 kts | 133° |
| 2026-05-07 14:36 | 40.09732 | 26.47625 | 35129 ft | 486 kts | 137° |
| 2026-05-07 14:36 | 40.04891 | 26.53726 | 35128 ft | 486 kts | 137° |
| 2026-05-07 14:37 | 40.00030 | 26.59854 | 35131 ft | 486 kts | 137° |
| 2026-05-07 14:37 | 39.92768 | 26.69115 | 35119 ft | 487 kts | 137° |
| 2026-05-07 14:38 | 39.87923 | 26.75296 | 35120 ft | 487 kts | 137° |
| 2026-05-07 14:38 | 39.83072 | 26.81466 | 35106 ft | 488 kts | 137° |
| 2026-05-07 14:39 | 39.78255 | 26.87580 | 35128 ft | 487 kts | 137° |
| 2026-05-07 14:39 | 39.73368 | 26.93696 | 35129 ft | 487 kts | 138° |
| 2026-05-07 14:40 | 39.68444 | 26.99720 | 35141 ft | 486 kts | 138° |
| 2026-05-07 14:40 | 39.63525 | 27.05736 | 35131 ft | 486 kts | 138° |
| 2026-05-07 14:41 | 39.58600 | 27.11767 | 35132 ft | 486 kts | 138° |
| 2026-05-07 14:41 | 39.53680 | 27.17786 | 35142 ft | 487 kts | 138° |
| 2026-05-07 14:42 | 39.48841 | 27.23870 | 35116 ft | 489 kts | 132° |
| 2026-05-07 14:42 | 39.44538 | 27.30667 | 35113 ft | 488 kts | 129° |
| 2026-05-07 14:43 | 39.40292 | 27.37530 | 35120 ft | 488 kts | 130° |
| 2026-05-07 14:43 | 39.35969 | 27.44301 | 35118 ft | 488 kts | 130° |
| 2026-05-07 14:44 | 39.31627 | 27.51050 | 35113 ft | 489 kts | 130° |
| 2026-05-07 14:44 | 39.27280 | 27.57801 | 35117 ft | 489 kts | 130° |
| 2026-05-07 14:45 | 39.22931 | 27.64550 | 35112 ft | 490 kts | 130° |
| 2026-05-07 14:45 | 39.18563 | 27.71314 | 35122 ft | 490 kts | 130° |
| 2026-05-07 14:46 | 39.14217 | 27.78031 | 35115 ft | 491 kts | 131° |
| 2026-05-07 14:46 | 39.09835 | 27.84789 | 35117 ft | 492 kts | 131° |
| 2026-05-07 14:47 | 39.05436 | 27.91552 | 35122 ft | 492 kts | 131° |
| 2026-05-07 14:47 | 39.01032 | 27.98305 | 35133 ft | 493 kts | 131° |
| 2026-05-07 14:48 | 38.96640 | 28.05028 | 35122 ft | 494 kts | 131° |
| 2026-05-07 14:48 | 38.92215 | 28.11789 | 35127 ft | 494 kts | 131° |
| 2026-05-07 14:49 | 38.87782 | 28.18549 | 35123 ft | 495 kts | 131° |
| 2026-05-07 14:49 | 38.83348 | 28.25295 | 35135 ft | 494 kts | 131° |
| 2026-05-07 14:50 | 38.78910 | 28.32035 | 35136 ft | 494 kts | 131° |
| 2026-05-07 14:50 | 38.74465 | 28.38769 | 35133 ft | 495 kts | 131° |
| 2026-05-07 14:51 | 38.70011 | 28.45504 | 35139 ft | 495 kts | 131° |
| 2026-05-07 14:51 | 38.65574 | 28.52199 | 35138 ft | 496 kts | 131° |
| 2026-05-07 14:52 | 38.61099 | 28.58941 | 35133 ft | 497 kts | 131° |
| 2026-05-07 14:52 | 38.56593 | 28.65656 | 35136 ft | 498 kts | 133° |
| 2026-05-07 14:53 | 38.51861 | 28.72136 | 35137 ft | 498 kts | 134° |
| 2026-05-07 14:53 | 38.47076 | 28.78532 | 35146 ft | 498 kts | 134° |
| 2026-05-07 14:54 | 38.42305 | 28.84972 | 35128 ft | 499 kts | 134° |
| 2026-05-07 14:54 | 38.37581 | 28.91387 | 35144 ft | 499 kts | 134° |
| 2026-05-07 14:55 | 38.32832 | 28.97832 | 35149 ft | 499 kts | 134° |
| 2026-05-07 14:55 | 38.28065 | 29.04285 | 35145 ft | 500 kts | 134° |
| 2026-05-07 14:56 | 38.23294 | 29.10726 | 35147 ft | 500 kts | 134° |
| 2026-05-07 14:56 | 38.18513 | 29.17168 | 35156 ft | 501 kts | 134° |
| 2026-05-07 14:57 | 38.13721 | 29.23614 | 35156 ft | 502 kts | 134° |
| 2026-05-07 14:57 | 38.08944 | 29.30027 | 35149 ft | 503 kts | 134° |
| 2026-05-07 14:58 | 38.04136 | 29.36491 | 35159 ft | 503 kts | 133° |
| 2026-05-07 14:58 | 37.99347 | 29.42980 | 35153 ft | 504 kts | 133° |
| 2026-05-07 14:59 | 37.94561 | 29.49459 | 35178 ft | 503 kts | 133° |
| 2026-05-07 14:59 | 37.89774 | 29.55916 | 35170 ft | 499 kts | 133° |
| 2026-05-07 15:00 | 37.87436 | 29.59064 | 35156 ft | 483 kts | 133° |
| 2026-05-07 15:00 | 37.85165 | 29.62120 | 35165 ft | 469 kts | 133° |
| 2026-05-07 15:00 | 37.82965 | 29.65076 | 35164 ft | 455 kts | 133° |
| 2026-05-07 15:00 | 37.80828 | 29.67947 | 35166 ft | 442 kts | 133° |
| 2026-05-07 15:01 | 37.78749 | 29.70732 | 35164 ft | 429 kts | 134° |
| 2026-05-07 15:01 | 37.76696 | 29.73391 | 35165 ft | 416 kts | 135° |
| 2026-05-07 15:01 | 37.72650 | 29.78465 | 35196 ft | 412 kts | 136° |
| 2026-05-07 15:02 | 37.68527 | 29.83625 | 35201 ft | 428 kts | 135° |
| 2026-05-07 15:02 | 37.64267 | 29.88980 | 35188 ft | 434 kts | 135° |
| 2026-05-07 15:03 | 37.60030 | 29.94311 | 35151 ft | 424 kts | 135° |
| 2026-05-07 15:03 | 37.55853 | 29.99555 | 35171 ft | 425 kts | 135° |
| 2026-05-07 15:04 | 37.51653 | 30.04832 | 35148 ft | 427 kts | 141° |
| 2026-05-07 15:04 | 37.49140 | 30.06763 | 35172 ft | 421 kts | 162° |
| 2026-05-07 15:04 | 37.46365 | 30.07652 | 35146 ft | 414 kts | 181° |
| 2026-05-07 15:05 | 37.40631 | 30.07820 | 35166 ft | 412 kts | 186° |
| 2026-05-07 15:05 | 37.34947 | 30.07153 | 35157 ft | 409 kts | 193° |
| 2026-05-07 15:06 | 37.29291 | 30.06195 | 35154 ft | 411 kts | 193° |
| 2026-05-07 15:06 | 37.23641 | 30.05365 | 35139 ft | 403 kts | 192° |
| 2026-05-07 15:07 | 37.18041 | 30.05137 | 35136 ft | 414 kts | 168° |
| 2026-05-07 15:07 | 37.15426 | 30.06560 | 35157 ft | 420 kts | 146° |
| 2026-05-07 15:07 | 37.13299 | 30.09070 | 35150 ft | 421 kts | 123° |
| 2026-05-07 15:08 | 37.11943 | 30.12294 | 35159 ft | 417 kts | 103° |
| 2026-05-07 15:08 | 37.11456 | 30.15832 | 35178 ft | 410 kts | 90° |
| 2026-05-07 15:08 | 37.11078 | 30.23000 | 35151 ft | 414 kts | 90° |
| 2026-05-07 15:09 | 37.11084 | 30.30140 | 35128 ft | 402 kts | 66° |
| 2026-05-07 15:09 | 37.12229 | 30.33249 | 35129 ft | 387 kts | 47° |
| 2026-05-07 15:09 | 37.14009 | 30.35676 | 35146 ft | 372 kts | 31° |
| 2026-05-07 15:10 | 37.16156 | 30.37407 | 35133 ft | 363 kts | 18° |
| 2026-05-07 15:10 | 37.18503 | 30.38425 | 35126 ft | 353 kts | 4° |
| 2026-05-07 15:10 | 37.23346 | 30.39096 | 35132 ft | 350 kts | 359° |
| 2026-05-07 15:11 | 37.28194 | 30.39671 | 35119 ft | 350 kts | 0° |
| 2026-05-07 15:11 | 37.33023 | 30.40317 | 35136 ft | 348 kts | 1° |
| 2026-05-07 15:12 | 37.37801 | 30.40961 | 35135 ft | 347 kts | 0° |
| 2026-05-07 15:12 | 37.42581 | 30.41605 | 35145 ft | 344 kts | 0° |
| 2026-05-07 15:13 | 37.46525 | 30.42136 | 35142 ft | 341 kts | 0° |
| 2026-05-07 15:13 | 37.51242 | 30.42772 | 35163 ft | 341 kts | 0° |
| 2026-05-07 15:14 | 37.53603 | 30.43199 | 35146 ft | 347 kts | 11° |
| 2026-05-07 15:14 | 37.55812 | 30.44530 | 35180 ft | 359 kts | 30° |
| 2026-05-07 15:14 | 37.57634 | 30.46786 | 35161 ft | 375 kts | 49° |
| 2026-05-07 15:14 | 37.58793 | 30.49785 | 35169 ft | 390 kts | 69° |
| 2026-05-07 15:15 | 37.59078 | 30.53189 | 35172 ft | 403 kts | 88° |
| 2026-05-07 15:15 | 37.59191 | 30.56676 | 35120 ft | 393 kts | 67° |
| 2026-05-07 15:15 | 37.60312 | 30.59690 | 35186 ft | 373 kts | 48° |
| 2026-05-07 15:15 | 37.61818 | 30.62373 | 35155 ft | 377 kts | 46° |
| 2026-05-07 15:16 | 37.64902 | 30.67810 | 35165 ft | 384 kts | 47° |
| 2026-05-07 15:16 | 37.67771 | 30.73539 | 35145 ft | 398 kts | 64° |
| 2026-05-07 15:17 | 37.68309 | 30.76996 | 35164 ft | 409 kts | 85° |
| 2026-05-07 15:17 | 37.68084 | 30.80590 | 35177 ft | 409 kts | 91° |
| 2026-05-07 15:17 | 37.67453 | 30.87761 | 35173 ft | 413 kts | 90° |
| 2026-05-07 15:18 | 37.66894 | 30.94997 | 35169 ft | 415 kts | 90° |
| 2026-05-07 15:18 | 37.66449 | 30.98571 | 35145 ft | 423 kts | 105° |
| 2026-05-07 15:18 | 37.65154 | 31.01916 | 35180 ft | 428 kts | 125° |
| 2026-05-07 15:19 | 37.63103 | 31.04647 | 35192 ft | 429 kts | 138° |
| 2026-05-07 15:19 | 37.60850 | 31.07127 | 35171 ft | 430 kts | 139° |
| 2026-05-07 15:19 | 37.56348 | 31.12108 | 35160 ft | 431 kts | 144° |
| 2026-05-07 15:20 | 37.53731 | 31.13883 | 35171 ft | 424 kts | 166° |
| 2026-05-07 15:20 | 37.50876 | 31.14615 | 35157 ft | 415 kts | 184° |
| 2026-05-07 15:20 | 37.45220 | 31.13938 | 35159 ft | 407 kts | 193° |
| 2026-05-07 15:21 | 37.39612 | 31.13060 | 35165 ft | 408 kts | 192° |
| 2026-05-07 15:21 | 37.33982 | 31.12274 | 35156 ft | 410 kts | 191° |
| 2026-05-07 15:22 | 37.28293 | 31.11487 | 35130 ft | 411 kts | 191° |
| 2026-05-07 15:22 | 37.22615 | 31.10686 | 35130 ft | 409 kts | 194° |
| 2026-05-07 15:23 | 37.19944 | 31.09678 | 35127 ft | 393 kts | 216° |
| 2026-05-07 15:23 | 37.17793 | 31.07715 | 35124 ft | 375 kts | 234° |
| 2026-05-07 15:23 | 37.16289 | 31.05141 | 35125 ft | 359 kts | 251° |
| 2026-05-07 15:23 | 37.15385 | 31.02274 | 35134 ft | 349 kts | 263° |
| 2026-05-07 15:24 | 37.15033 | 30.99356 | 35116 ft | 340 kts | 276° |
| 2026-05-07 15:24 | 37.15460 | 30.96526 | 35100 ft | 326 kts | 301° |
| 2026-05-07 15:24 | 37.16915 | 30.94388 | 35112 ft | 321 kts | 327° |
| 2026-05-07 15:24 | 37.18988 | 30.93485 | 35137 ft | 327 kts | 353° |
| 2026-05-07 15:25 | 37.21278 | 30.93993 | 35126 ft | 349 kts | 20° |
| 2026-05-07 15:25 | 37.23257 | 30.95895 | 35145 ft | 372 kts | 41° |
| 2026-05-07 15:25 | 37.25168 | 30.98032 | 35105 ft | 363 kts | 20° |
| 2026-05-07 15:25 | 37.27495 | 30.99037 | 35186 ft | 352 kts | 9° |
| 2026-05-07 15:26 | 37.32280 | 31.00701 | 34389 ft | 365 kts | 9° |
| 2026-05-07 15:26 | 37.34737 | 31.01563 | 33789 ft | 369 kts | 9° |
| 2026-05-07 15:26 | 37.37230 | 31.02435 | 33100 ft | 374 kts | 9° |
| 2026-05-07 15:27 | 37.39759 | 31.03312 | 32438 ft | 378 kts | 9° |
| 2026-05-07 15:27 | 37.42309 | 31.04189 | 31780 ft | 382 kts | 9° |
| 2026-05-07 15:27 | 37.44894 | 31.05069 | 31137 ft | 385 kts | 9° |
| 2026-05-07 15:27 | 37.47460 | 31.05935 | 30523 ft | 388 kts | 9° |
| 2026-05-07 15:28 | 37.50079 | 31.06811 | 29854 ft | 390 kts | 9° |
| 2026-05-07 15:28 | 37.52715 | 31.07684 | 29139 ft | 392 kts | 9° |
| 2026-05-07 15:28 | 37.55359 | 31.08551 | 28443 ft | 393 kts | 9° |
| 2026-05-07 15:28 | 37.58008 | 31.09410 | 27779 ft | 393 kts | 9° |
| 2026-05-07 15:29 | 37.60660 | 31.10262 | 27106 ft | 393 kts | 10° |
| 2026-05-07 15:29 | 37.63314 | 31.11104 | 26464 ft | 393 kts | 10° |
| 2026-05-07 15:29 | 37.65972 | 31.11938 | 25824 ft | 392 kts | 9° |
| 2026-05-07 15:29 | 37.68620 | 31.12760 | 25215 ft | 392 kts | 9° |
| 2026-05-07 15:30 | 37.71270 | 31.13576 | 24609 ft | 392 kts | 9° |
| 2026-05-07 15:30 | 37.73917 | 31.14384 | 24011 ft | 391 kts | 9° |
| 2026-05-07 15:30 | 37.76561 | 31.15185 | 23358 ft | 390 kts | 10° |
| 2026-05-07 15:30 | 37.79168 | 31.15969 | 22676 ft | 388 kts | 10° |
| 2026-05-07 15:31 | 37.81794 | 31.16750 | 21999 ft | 387 kts | 10° |
| 2026-05-07 15:31 | 37.84414 | 31.17519 | 21337 ft | 385 kts | 9° |
| 2026-05-07 15:31 | 37.87023 | 31.18281 | 20699 ft | 384 kts | 9° |
| 2026-05-07 15:31 | 37.89627 | 31.19035 | 20059 ft | 383 kts | 10° |
| 2026-05-07 15:32 | 37.92221 | 31.19779 | 19455 ft | 381 kts | 9° |
| 2026-05-07 15:32 | 37.94806 | 31.20515 | 18842 ft | 380 kts | 10° |
| 2026-05-07 15:32 | 37.97380 | 31.21240 | 18221 ft | 379 kts | 10° |
| 2026-05-07 15:32 | 37.99953 | 31.21957 | 17525 ft | 378 kts | 10° |
| 2026-05-07 15:33 | 38.02519 | 31.22662 | 16867 ft | 376 kts | 9° |
| 2026-05-07 15:33 | 38.05074 | 31.23357 | 16209 ft | 375 kts | 9° |
| 2026-05-07 15:33 | 38.07626 | 31.24041 | 15571 ft | 374 kts | 9° |
| 2026-05-07 15:33 | 38.10136 | 31.24705 | 14945 ft | 372 kts | 9° |
| 2026-05-07 15:34 | 38.12674 | 31.25371 | 14333 ft | 371 kts | 9° |
| 2026-05-07 15:34 | 38.15211 | 31.25941 | 13677 ft | 369 kts | 2° |
| 2026-05-07 15:34 | 38.17735 | 31.25587 | 12997 ft | 365 kts | 342° |
| 2026-05-07 15:34 | 38.19978 | 31.24121 | 12381 ft | 363 kts | 321° |
| 2026-05-07 15:35 | 38.21585 | 31.21747 | 12195 ft | 350 kts | 300° |
| 2026-05-07 15:35 | 38.22372 | 31.18872 | 11956 ft | 341 kts | 278° |
| 2026-05-07 15:35 | 38.22251 | 31.15906 | 11744 ft | 335 kts | 257° |
| 2026-05-07 15:35 | 38.21335 | 31.13256 | 11536 ft | 330 kts | 237° |
| 2026-05-07 15:36 | 38.19789 | 31.11156 | 11364 ft | 324 kts | 219° |
| 2026-05-07 15:36 | 38.17861 | 31.09741 | 11178 ft | 319 kts | 201° |
| 2026-05-07 15:36 | 38.15733 | 31.09037 | 11016 ft | 312 kts | 193° |
| 2026-05-07 15:36 | 38.13621 | 31.08525 | 10838 ft | 306 kts | 191° |
| 2026-05-07 15:37 | 38.11544 | 31.08063 | 10660 ft | 299 kts | 191° |
| 2026-05-07 15:37 | 38.09513 | 31.07614 | 10489 ft | 293 kts | 191° |
| 2026-05-07 15:37 | 38.07521 | 31.07167 | 10323 ft | 288 kts | 191° |
| 2026-05-07 15:37 | 38.05565 | 31.06722 | 10196 ft | 281 kts | 192° |
| 2026-05-07 15:38 | 38.03686 | 31.06290 | 10185 ft | 268 kts | 192° |
| 2026-05-07 15:38 | 38.01884 | 31.05872 | 10162 ft | 257 kts | 191° |
| 2026-05-07 15:38 | 38.00139 | 31.05467 | 10184 ft | 254 kts | 192° |
| 2026-05-07 15:38 | 37.98405 | 31.05062 | 10152 ft | 251 kts | 192° |
| 2026-05-07 15:39 | 37.96716 | 31.04667 | 10153 ft | 249 kts | 192° |
| 2026-05-07 15:39 | 37.95018 | 31.04267 | 10158 ft | 247 kts | 192° |
| 2026-05-07 15:39 | 37.93324 | 31.03868 | 10163 ft | 249 kts | 192° |
| 2026-05-07 15:39 | 37.91602 | 31.03467 | 10201 ft | 253 kts | 192° |
| 2026-05-07 15:40 | 37.89867 | 31.03060 | 10171 ft | 253 kts | 192° |
| 2026-05-07 15:40 | 37.88144 | 31.02650 | 10181 ft | 251 kts | 192° |
| 2026-05-07 15:40 | 37.86427 | 31.02245 | 10194 ft | 251 kts | 192° |
| 2026-05-07 15:40 | 37.84707 | 31.01839 | 10180 ft | 250 kts | 192° |
| 2026-05-07 15:41 | 37.82996 | 31.01436 | 10163 ft | 249 kts | 192° |
| 2026-05-07 15:41 | 37.81289 | 31.01035 | 10175 ft | 250 kts | 191° |
| 2026-05-07 15:41 | 37.79572 | 31.00631 | 10176 ft | 252 kts | 192° |
| 2026-05-07 15:41 | 37.77858 | 31.00228 | 10180 ft | 255 kts | 192° |
| 2026-05-07 15:42 | 37.76104 | 30.99816 | 10193 ft | 256 kts | 192° |
| 2026-05-07 15:42 | 37.74347 | 30.99402 | 10179 ft | 257 kts | 192° |
| 2026-05-07 15:42 | 37.72584 | 30.98988 | 10175 ft | 257 kts | 192° |
| 2026-05-07 15:42 | 37.70827 | 30.98575 | 10185 ft | 257 kts | 192° |
| 2026-05-07 15:43 | 37.69064 | 30.98163 | 10172 ft | 257 kts | 191° |
| 2026-05-07 15:43 | 37.67305 | 30.97750 | 10183 ft | 255 kts | 192° |
| 2026-05-07 15:43 | 37.65565 | 30.97341 | 10172 ft | 253 kts | 192° |
| 2026-05-07 15:43 | 37.63862 | 30.96944 | 10141 ft | 251 kts | 192° |
| 2026-05-07 15:44 | 37.62150 | 30.96546 | 10092 ft | 250 kts | 192° |
| 2026-05-07 15:44 | 37.60452 | 30.96150 | 10046 ft | 247 kts | 192° |
| 2026-05-07 15:44 | 37.58768 | 30.95755 | 10006 ft | 244 kts | 192° |
| 2026-05-07 15:44 | 37.57100 | 30.95365 | 9949 ft | 243 kts | 191° |
| 2026-05-07 15:45 | 37.55447 | 30.94982 | 9907 ft | 240 kts | 192° |
| 2026-05-07 15:45 | 37.53809 | 30.94599 | 9864 ft | 239 kts | 192° |
| 2026-05-07 15:45 | 37.52170 | 30.94218 | 9836 ft | 241 kts | 191° |
| 2026-05-07 15:45 | 37.50511 | 30.93827 | 9813 ft | 243 kts | 192° |
| 2026-05-07 15:46 | 37.47158 | 30.93046 | 9721 ft | 247 kts | 190° |
| 2026-05-07 15:46 | 37.45475 | 30.92656 | 9687 ft | 249 kts | 191° |
| 2026-05-07 15:46 | 37.43776 | 30.92229 | 9627 ft | 249 kts | 196° |
| 2026-05-07 15:47 | 37.42091 | 30.91550 | 9449 ft | 261 kts | 200° |
| 2026-05-07 15:47 | 37.40354 | 30.90769 | 9212 ft | 268 kts | 201° |
| 2026-05-07 15:47 | 37.38566 | 30.89966 | 8863 ft | 276 kts | 201° |
| 2026-05-07 15:47 | 37.36777 | 30.89159 | 8840 ft | 266 kts | 201° |
| 2026-05-07 15:48 | 37.35063 | 30.88394 | 8783 ft | 258 kts | 199° |
| 2026-05-07 15:48 | 37.33248 | 30.87865 | 8203 ft | 273 kts | 191° |
| 2026-05-07 15:48 | 37.31355 | 30.87458 | 7777 ft | 279 kts | 190° |
| 2026-05-07 15:48 | 37.30046 | 30.87178 | 7582 ft | 278 kts | 191° |
| 2026-05-07 15:49 | 37.28196 | 30.86767 | 7483 ft | 270 kts | 191° |
| 2026-05-07 15:49 | 37.26313 | 30.86323 | 7029 ft | 277 kts | 192° |
| 2026-05-07 15:49 | 37.24409 | 30.85860 | 6652 ft | 281 kts | 192° |
| 2026-05-07 15:49 | 37.22480 | 30.85377 | 6257 ft | 283 kts | 192° |
| 2026-05-07 15:50 | 37.20546 | 30.84885 | 5878 ft | 284 kts | 192° |
| 2026-05-07 15:50 | 37.18626 | 30.84393 | 5489 ft | 279 kts | 192° |
| 2026-05-07 15:50 | 37.16759 | 30.83910 | 5144 ft | 269 kts | 192° |
| 2026-05-07 15:50 | 37.14968 | 30.83444 | 4786 ft | 256 kts | 193° |
| 2026-05-07 15:51 | 37.13267 | 30.83006 | 4460 ft | 243 kts | 192° |
| 2026-05-07 15:51 | 37.11657 | 30.82590 | 4135 ft | 229 kts | 192° |
| 2026-05-07 15:51 | 37.10147 | 30.82167 | 3830 ft | 216 kts | 193° |
| 2026-05-07 15:51 | 37.08734 | 30.81849 | 3593 ft | 199 kts | 188° |
| 2026-05-07 15:52 | 37.07397 | 30.81643 | 3310 ft | 187 kts | 186° |
| 2026-05-07 15:52 | 37.06144 | 30.81471 | 3059 ft | 176 kts | 186° |
| 2026-05-07 15:52 | 37.04959 | 30.81309 | 2836 ft | 167 kts | 185° |
| 2026-05-07 15:52 | 37.03812 | 30.81154 | 2618 ft | 164 kts | 185° |
| 2026-05-07 15:53 | 37.02719 | 30.81006 | 2439 ft | 153 kts | 184° |
| 2026-05-07 15:53 | 37.01608 | 30.80854 | 2201 ft | 163 kts | 184° |
| 2026-05-07 15:53 | 37.00492 | 30.80701 | 1963 ft | 157 kts | 185° |
| 2026-05-07 15:53 | 36.99445 | 30.80559 | 1779 ft | 148 kts | 185° |
| 2026-05-07 15:54 | 36.98428 | 30.80421 | 1573 ft | 146 kts | 185° |
| 2026-05-07 15:54 | 36.97448 | 30.80284 | 1406 ft | 142 kts | 185° |
| 2026-05-07 15:54 | 36.96450 | 30.80150 | 1201 ft | 147 kts | 184° |
| 2026-05-07 15:54 | 36.95446 | 30.80013 | 1025 ft | 144 kts | 185° |
| 2026-05-07 15:55 | 36.94448 | 30.79875 | 806 ft | 142 kts | 184° |
| 2026-05-07 15:55 | 36.93481 | 30.79742 | 621 ft | 140 kts | 184° |
| 2026-05-07 15:55 | 36.92528 | 30.79613 | 431 ft | 138 kts | 181° |
| 2026-05-07 15:55 | 36.91534 | 30.79473 | 241 ft | 142 kts | 183° |
| 2026-05-07 15:56 | 36.90622 | 30.79352 | 190 ft | 117 kts | 186° |
| 2026-05-07 15:56 | 36.89960 | 30.79261 | 187 ft | 73 kts | 186° |
| 2026-05-07 15:56 | 36.89640 | 30.79228 | 191 ft | 32 kts | 172° |
| 2026-05-07 15:56 | 36.89470 | 30.79299 | 195 ft | 4 kts | 156° |
| 2026-05-07 15:57 | 36.89465 | 30.79302 | 198 ft | 0 kts | 156° |
| 2026-05-07 15:57 | 36.89463 | 30.79303 | 198 ft | 0 kts | 156° |
| 2026-05-07 15:57 | 36.89452 | 30.79309 | 197 ft | 5 kts | 156° |
| 2026-05-07 15:57 | 36.89417 | 30.79339 | 194 ft | 7 kts | 116° |
| 2026-05-07 15:58 | 36.89448 | 30.79400 | 191 ft | 11 kts | 23° |
| 2026-05-07 15:58 | 36.89527 | 30.79420 | 194 ft | 12 kts | 5° |
| 2026-05-07 15:58 | 36.89607 | 30.79430 | 202 ft | 11 kts | 6° |
| 2026-05-07 15:58 | 36.89669 | 30.79476 | 198 ft | 11 kts | 82° |
| 2026-05-07 15:59 | 36.89663 | 30.79539 | 202 ft | 11 kts | 98° |
| 2026-05-07 15:59 | 36.89655 | 30.79600 | 191 ft | 5 kts | 98° |
| 2026-05-07 15:59 | 36.89652 | 30.79628 | 191 ft | 5 kts | 98° |
| 2026-05-07 15:59 | 36.89647 | 30.79670 | 197 ft | 5 kts | 98° |
| 2026-05-07 16:00 | 36.89642 | 30.79724 | 191 ft | 11 kts | 97° |
| 2026-05-07 16:00 | 36.89633 | 30.79827 | 201 ft | 12 kts | 95° |
| 2026-05-07 16:00 | 36.89621 | 30.79962 | 191 ft | 12 kts | 96° |
| 2026-05-07 16:00 | 36.89616 | 30.80029 | 197 ft | 11 kts | 96° |
| 2026-05-07 16:01 | 36.89608 | 30.80125 | 191 ft | 11 kts | 96° |
| 2026-05-07 16:01 | 36.89609 | 30.80175 | 191 ft | 13 kts | 80° |
| 2026-05-07 16:01 | 36.89661 | 30.80267 | 193 ft | 9 kts | 27° |
| 2026-05-07 16:01 | 36.89715 | 30.80295 | 191 ft | 8 kts | 14° |
| 2026-05-07 16:02 | 36.89733 | 30.80271 | 191 ft | 8 kts | 289° |
| 2026-05-07 16:02 | 36.89747 | 30.80219 | 191 ft | 0 kts | 288° |